sensor_id;sensor_type;location;lat;lon;timestamp;temperature;humidity
23089;DHT22;11713;48.506;8.966;2023-03-19T00:02:18;9.90;99.90
23089;DHT22;11713;48.506;8.966;2023-03-19T00:04:45;9.90;99.90
23089;DHT22;11713;48.506;8.966;2023-03-19T00:07:12;10.00;99.90
23089;DHT22;11713;48.506;8.966;2023-03-19T00:09:38;10.00;99.90
23089;DHT22;11713;48.506;8.966;2023-03-19T00:12:05;10.00;99.90
23089;DHT22;11713;48.506;8.966;2023-03-19T00:14:31;10.00;99.90
23089;DHT22;11713;48.506;8.966;2023-03-19T00:16:57;10.00;99.90
23089;DHT22;11713;48.506;8.966;2023-03-19T00:19:23;10.00;99.90
23089;DHT22;11713;48.506;8.966;2023-03-19T00:21:50;9.90;99.90
23089;DHT22;11713;48.506;8.966;2023-03-19T00:24:16;9.80;99.90
23089;DHT22;11713;48.506;8.966;2023-03-19T00:26:42;9.80;99.90
23089;DHT22;11713;48.506;8.966;2023-03-19T00:29:08;9.70;99.90
23089;DHT22;11713;48.506;8.966;2023-03-19T00:31:34;9.70;99.90
23089;DHT22;11713;48.506;8.966;2023-03-19T00:34:01;9.70;99.90
23089;DHT22;11713;48.506;8.966;2023-03-19T00:36:28;9.70;99.90
23089;DHT22;11713;48.506;8.966;2023-03-19T00:38:56;9.70;99.90
23089;DHT22;11713;48.506;8.966;2023-03-19T00:41:23;9.60;99.90
23089;DHT22;11713;48.506;8.966;2023-03-19T00:43:56;9.70;99.90
23089;DHT22;11713;48.506;8.966;2023-03-19T00:46:23;9.80;99.90
23089;DHT22;11713;48.506;8.966;2023-03-19T00:48:49;9.80;99.90
23089;DHT22;11713;48.506;8.966;2023-03-19T00:51:18;9.80;99.90
23089;DHT22;11713;48.506;8.966;2023-03-19T00:53:44;9.80;99.90
23089;DHT22;11713;48.506;8.966;2023-03-19T00:56:12;9.80;99.90
23089;DHT22;11713;48.506;8.966;2023-03-19T00:58:38;9.80;99.90
23089;DHT22;11713;48.506;8.966;2023-03-19T01:01:10;9.90;99.90
23089;DHT22;11713;48.506;8.966;2023-03-19T01:03:37;9.90;99.90
23089;DHT22;11713;48.506;8.966;2023-03-19T01:06:05;9.90;99.90
23089;DHT22;11713;48.506;8.966;2023-03-19T01:08:31;10.00;99.90
23089;DHT22;11713;48.506;8.966;2023-03-19T01:11:09;9.90;99.90
23089;DHT22;11713;48.506;8.966;2023-03-19T01:13:35;10.00;99.90
23089;DHT22;11713;48.506;8.966;2023-03-19T01:16:02;9.90;99.90
23089;DHT22;11713;48.506;8.966;2023-03-19T01:18:28;9.90;99.90
23089;DHT22;11713;48.506;8.966;2023-03-19T01:20:54;10.00;99.90
23089;DHT22;11713;48.506;8.966;2023-03-19T01:23:20;10.00;99.90
23089;DHT22;11713;48.506;8.966;2023-03-19T01:25:46;10.00;99.90
23089;DHT22;11713;48.506;8.966;2023-03-19T01:28:12;10.00;99.90
23089;DHT22;11713;48.506;8.966;2023-03-19T01:30:39;10.00;99.90
23089;DHT22;11713;48.506;8.966;2023-03-19T01:33:08;10.00;99.90
23089;DHT22;11713;48.506;8.966;2023-03-19T01:35:40;9.80;99.90
23089;DHT22;11713;48.506;8.966;2023-03-19T01:38:06;9.70;99.90
23089;DHT22;11713;48.506;8.966;2023-03-19T01:40:33;9.60;99.90
23089;DHT22;11713;48.506;8.966;2023-03-19T01:43:16;9.50;99.90
23089;DHT22;11713;48.506;8.966;2023-03-19T01:45:49;9.50;99.90
23089;DHT22;11713;48.506;8.966;2023-03-19T01:48:47;9.50;99.90
23089;DHT22;11713;48.506;8.966;2023-03-19T01:51:19;9.50;99.90
23089;DHT22;11713;48.506;8.966;2023-03-19T01:54:02;9.50;99.90
23089;DHT22;11713;48.506;8.966;2023-03-19T01:57:02;9.60;99.90
23089;DHT22;11713;48.506;8.966;2023-03-19T01:59:51;9.50;99.90
23089;DHT22;11713;48.506;8.966;2023-03-19T02:02:33;9.40;99.90
23089;DHT22;11713;48.506;8.966;2023-03-19T02:05:13;9.40;99.90
23089;DHT22;11713;48.506;8.966;2023-03-19T02:07:43;9.30;99.90
23089;DHT22;11713;48.506;8.966;2023-03-19T02:10:12;9.20;99.90
23089;DHT22;11713;48.506;8.966;2023-03-19T02:12:39;9.30;99.90
23089;DHT22;11713;48.506;8.966;2023-03-19T02:15:06;9.30;99.90
23089;DHT22;11713;48.506;8.966;2023-03-19T02:17:32;9.30;99.90
23089;DHT22;11713;48.506;8.966;2023-03-19T02:20:39;9.30;99.90
23089;DHT22;11713;48.506;8.966;2023-03-19T02:26:05;9.30;99.90
23089;DHT22;11713;48.506;8.966;2023-03-19T02:28:33;9.40;99.90
23089;DHT22;11713;48.506;8.966;2023-03-19T02:31:00;9.30;99.90
23089;DHT22;11713;48.506;8.966;2023-03-19T02:33:27;9.40;99.90
23089;DHT22;11713;48.506;8.966;2023-03-19T02:35:54;9.40;99.90
23089;DHT22;11713;48.506;8.966;2023-03-19T02:38:22;9.40;99.90
23089;DHT22;11713;48.506;8.966;2023-03-19T02:41:10;9.30;99.90
23089;DHT22;11713;48.506;8.966;2023-03-19T02:43:39;9.30;99.90
23089;DHT22;11713;48.506;8.966;2023-03-19T02:46:08;9.20;99.90
23089;DHT22;11713;48.506;8.966;2023-03-19T02:48:36;9.00;99.90
23089;DHT22;11713;48.506;8.966;2023-03-19T02:51:03;9.00;99.90
23089;DHT22;11713;48.506;8.966;2023-03-19T02:53:30;9.00;99.90
23089;DHT22;11713;48.506;8.966;2023-03-19T02:55:55;8.90;99.90
23089;DHT22;11713;48.506;8.966;2023-03-19T02:58:21;8.80;99.90
23089;DHT22;11713;48.506;8.966;2023-03-19T03:00:47;8.90;99.90
23089;DHT22;11713;48.506;8.966;2023-03-19T03:03:13;8.90;99.90
23089;DHT22;11713;48.506;8.966;2023-03-19T03:05:39;8.90;99.90
23089;DHT22;11713;48.506;8.966;2023-03-19T03:08:05;9.00;99.90
23089;DHT22;11713;48.506;8.966;2023-03-19T03:10:32;9.10;99.90
23089;DHT22;11713;48.506;8.966;2023-03-19T03:12:59;9.10;99.90
23089;DHT22;11713;48.506;8.966;2023-03-19T03:15:25;9.10;99.90
23089;DHT22;11713;48.506;8.966;2023-03-19T03:17:52;9.10;99.90
23089;DHT22;11713;48.506;8.966;2023-03-19T03:20:18;9.10;99.90
23089;DHT22;11713;48.506;8.966;2023-03-19T03:22:45;9.00;99.90
23089;DHT22;11713;48.506;8.966;2023-03-19T03:25:11;8.90;99.90
23089;DHT22;11713;48.506;8.966;2023-03-19T03:27:38;8.90;99.90
23089;DHT22;11713;48.506;8.966;2023-03-19T03:30:05;8.90;99.90
23089;DHT22;11713;48.506;8.966;2023-03-19T03:32:37;8.90;99.90
23089;DHT22;11713;48.506;8.966;2023-03-19T03:35:05;8.90;99.90
23089;DHT22;11713;48.506;8.966;2023-03-19T03:37:31;8.90;99.90
23089;DHT22;11713;48.506;8.966;2023-03-19T03:39:57;9.00;99.90
23089;DHT22;11713;48.506;8.966;2023-03-19T03:42:23;9.00;99.90
23089;DHT22;11713;48.506;8.966;2023-03-19T03:44:49;9.10;99.90
23089;DHT22;11713;48.506;8.966;2023-03-19T03:47:15;9.20;99.90
23089;DHT22;11713;48.506;8.966;2023-03-19T03:49:42;9.20;99.90
23089;DHT22;11713;48.506;8.966;2023-03-19T03:52:08;9.30;99.90
23089;DHT22;11713;48.506;8.966;2023-03-19T03:54:34;9.40;99.90
23089;DHT22;11713;48.506;8.966;2023-03-19T03:57:00;9.30;99.90
23089;DHT22;11713;48.506;8.966;2023-03-19T03:59:27;9.30;99.90
23089;DHT22;11713;48.506;8.966;2023-03-19T04:01:53;9.30;99.90
23089;DHT22;11713;48.506;8.966;2023-03-19T04:04:19;9.30;99.90
23089;DHT22;11713;48.506;8.966;2023-03-19T04:06:46;9.30;99.90
23089;DHT22;11713;48.506;8.966;2023-03-19T04:09:20;9.30;99.90
23089;DHT22;11713;48.506;8.966;2023-03-19T04:11:46;9.20;99.90
23089;DHT22;11713;48.506;8.966;2023-03-19T04:14:12;9.10;99.90
23089;DHT22;11713;48.506;8.966;2023-03-19T04:16:39;9.00;99.90
23089;DHT22;11713;48.506;8.966;2023-03-19T04:19:05;9.00;99.90
23089;DHT22;11713;48.506;8.966;2023-03-19T04:21:32;8.90;99.90
23089;DHT22;11713;48.506;8.966;2023-03-19T04:23:58;8.90;99.90
23089;DHT22;11713;48.506;8.966;2023-03-19T04:26:24;8.90;99.90
23089;DHT22;11713;48.506;8.966;2023-03-19T04:28:50;8.90;99.90
23089;DHT22;11713;48.506;8.966;2023-03-19T04:31:17;8.90;99.90
23089;DHT22;11713;48.506;8.966;2023-03-19T04:33:43;9.00;99.90
23089;DHT22;11713;48.506;8.966;2023-03-19T04:36:10;9.00;99.90
23089;DHT22;11713;48.506;8.966;2023-03-19T04:38:37;8.90;99.90
23089;DHT22;11713;48.506;8.966;2023-03-19T04:41:03;8.80;99.90
23089;DHT22;11713;48.506;8.966;2023-03-19T04:43:32;8.80;99.90
23089;DHT22;11713;48.506;8.966;2023-03-19T04:45:59;8.80;99.90
23089;DHT22;11713;48.506;8.966;2023-03-19T04:48:26;8.70;99.90
23089;DHT22;11713;48.506;8.966;2023-03-19T04:50:53;8.70;99.90
23089;DHT22;11713;48.506;8.966;2023-03-19T04:53:22;8.60;99.90
23089;DHT22;11713;48.506;8.966;2023-03-19T04:55:49;8.50;99.90
23089;DHT22;11713;48.506;8.966;2023-03-19T04:58:18;8.40;99.90
23089;DHT22;11713;48.506;8.966;2023-03-19T05:00:51;8.40;99.90
23089;DHT22;11713;48.506;8.966;2023-03-19T05:03:24;8.50;99.90
23089;DHT22;11713;48.506;8.966;2023-03-19T05:05:52;8.60;99.90
23089;DHT22;11713;48.506;8.966;2023-03-19T05:08:19;8.50;99.90
23089;DHT22;11713;48.506;8.966;2023-03-19T05:10:45;8.30;99.90
23089;DHT22;11713;48.506;8.966;2023-03-19T05:13:12;8.30;99.90
23089;DHT22;11713;48.506;8.966;2023-03-19T05:15:44;8.40;99.90
23089;DHT22;11713;48.506;8.966;2023-03-19T05:18:12;8.40;99.90
23089;DHT22;11713;48.506;8.966;2023-03-19T05:20:42;8.30;99.90
23089;DHT22;11713;48.506;8.966;2023-03-19T05:23:15;8.40;99.90
23089;DHT22;11713;48.506;8.966;2023-03-19T05:25:53;8.40;99.90
23089;DHT22;11713;48.506;8.966;2023-03-19T05:28:33;8.50;99.90
23089;DHT22;11713;48.506;8.966;2023-03-19T05:31:02;8.40;99.90
23089;DHT22;11713;48.506;8.966;2023-03-19T05:33:38;8.40;99.90
23089;DHT22;11713;48.506;8.966;2023-03-19T05:36:05;8.50;99.90
23089;DHT22;11713;48.506;8.966;2023-03-19T05:38:50;8.40;99.90
23089;DHT22;11713;48.506;8.966;2023-03-19T05:41:23;8.50;99.90
23089;DHT22;11713;48.506;8.966;2023-03-19T05:43:57;8.50;99.90
23089;DHT22;11713;48.506;8.966;2023-03-19T05:46:42;8.50;99.90
23089;DHT22;11713;48.506;8.966;2023-03-19T05:49:09;8.60;99.90
23089;DHT22;11713;48.506;8.966;2023-03-19T05:51:35;8.60;99.90
23089;DHT22;11713;48.506;8.966;2023-03-19T05:54:01;8.60;99.90
23089;DHT22;11713;48.506;8.966;2023-03-19T05:56:33;8.60;99.90
23089;DHT22;11713;48.506;8.966;2023-03-19T05:59:19;8.60;99.90
23089;DHT22;11713;48.506;8.966;2023-03-19T06:01:57;8.60;99.90
23089;DHT22;11713;48.506;8.966;2023-03-19T06:04:23;8.60;99.90
23089;DHT22;11713;48.506;8.966;2023-03-19T06:06:50;8.70;99.90
23089;DHT22;11713;48.506;8.966;2023-03-19T06:09:17;8.80;99.90
23089;DHT22;11713;48.506;8.966;2023-03-19T06:11:48;8.80;99.90
23089;DHT22;11713;48.506;8.966;2023-03-19T06:14:40;8.90;99.90
23089;DHT22;11713;48.506;8.966;2023-03-19T06:17:25;8.90;99.90
23089;DHT22;11713;48.506;8.966;2023-03-19T06:19:53;8.90;99.90
23089;DHT22;11713;48.506;8.966;2023-03-19T06:22:19;8.90;99.90
23089;DHT22;11713;48.506;8.966;2023-03-19T06:24:45;8.90;99.90
23089;DHT22;11713;48.506;8.966;2023-03-19T06:27:11;8.90;99.90
23089;DHT22;11713;48.506;8.966;2023-03-19T06:29:37;8.90;99.90
23089;DHT22;11713;48.506;8.966;2023-03-19T06:32:15;8.90;99.90
23089;DHT22;11713;48.506;8.966;2023-03-19T06:34:41;8.90;99.90
23089;DHT22;11713;48.506;8.966;2023-03-19T06:37:07;8.90;99.90
23089;DHT22;11713;48.506;8.966;2023-03-19T06:39:33;8.90;99.90
23089;DHT22;11713;48.506;8.966;2023-03-19T06:41:59;8.90;99.90
23089;DHT22;11713;48.506;8.966;2023-03-19T06:44:26;8.90;99.90
23089;DHT22;11713;48.506;8.966;2023-03-19T06:46:52;8.90;99.90
23089;DHT22;11713;48.506;8.966;2023-03-19T06:49:17;8.90;99.90
23089;DHT22;11713;48.506;8.966;2023-03-19T06:51:43;9.00;99.90
23089;DHT22;11713;48.506;8.966;2023-03-19T06:54:09;9.00;99.90
23089;DHT22;11713;48.506;8.966;2023-03-19T06:56:35;9.10;99.90
23089;DHT22;11713;48.506;8.966;2023-03-19T06:59:01;9.10;99.90
23089;DHT22;11713;48.506;8.966;2023-03-19T07:01:27;9.10;99.90
23089;DHT22;11713;48.506;8.966;2023-03-19T07:03:53;9.20;99.90
23089;DHT22;11713;48.506;8.966;2023-03-19T07:06:20;9.20;99.90
23089;DHT22;11713;48.506;8.966;2023-03-19T07:08:46;9.20;99.90
23089;DHT22;11713;48.506;8.966;2023-03-19T07:11:13;9.20;99.90
23089;DHT22;11713;48.506;8.966;2023-03-19T07:13:39;9.20;99.90
23089;DHT22;11713;48.506;8.966;2023-03-19T07:16:06;9.30;99.90
23089;DHT22;11713;48.506;8.966;2023-03-19T07:18:32;9.30;99.90
23089;DHT22;11713;48.506;8.966;2023-03-19T07:20:59;9.30;99.90
23089;DHT22;11713;48.506;8.966;2023-03-19T07:23:25;9.30;99.90
23089;DHT22;11713;48.506;8.966;2023-03-19T07:25:52;9.40;99.90
23089;DHT22;11713;48.506;8.966;2023-03-19T07:28:18;9.40;99.90
23089;DHT22;11713;48.506;8.966;2023-03-19T07:30:45;9.50;99.90
23089;DHT22;11713;48.506;8.966;2023-03-19T07:33:11;9.40;99.90
23089;DHT22;11713;48.506;8.966;2023-03-19T07:35:37;9.40;99.90
23089;DHT22;11713;48.506;8.966;2023-03-19T07:38:02;9.50;99.90
23089;DHT22;11713;48.506;8.966;2023-03-19T07:40:28;9.50;99.90
23089;DHT22;11713;48.506;8.966;2023-03-19T07:42:54;9.60;99.90
23089;DHT22;11713;48.506;8.966;2023-03-19T07:45:21;9.60;99.90
23089;DHT22;11713;48.506;8.966;2023-03-19T07:47:49;9.70;99.90
23089;DHT22;11713;48.506;8.966;2023-03-19T07:50:16;9.80;99.90
23089;DHT22;11713;48.506;8.966;2023-03-19T07:52:45;9.90;99.90
23089;DHT22;11713;48.506;8.966;2023-03-19T07:55:11;10.00;99.90
23089;DHT22;11713;48.506;8.966;2023-03-19T07:57:37;10.20;99.90
23089;DHT22;11713;48.506;8.966;2023-03-19T08:00:04;10.30;99.90
23089;DHT22;11713;48.506;8.966;2023-03-19T08:02:39;10.40;99.90
23089;DHT22;11713;48.506;8.966;2023-03-19T08:05:05;10.50;99.90
23089;DHT22;11713;48.506;8.966;2023-03-19T08:07:32;10.60;99.90
23089;DHT22;11713;48.506;8.966;2023-03-19T08:09:58;10.60;99.90
23089;DHT22;11713;48.506;8.966;2023-03-19T08:12:24;10.70;99.90
23089;DHT22;11713;48.506;8.966;2023-03-19T08:14:50;10.80;99.90
23089;DHT22;11713;48.506;8.966;2023-03-19T08:17:16;10.80;99.90
23089;DHT22;11713;48.506;8.966;2023-03-19T08:19:43;10.80;99.90
23089;DHT22;11713;48.506;8.966;2023-03-19T08:22:10;10.80;99.90
23089;DHT22;11713;48.506;8.966;2023-03-19T08:24:36;10.90;99.90
23089;DHT22;11713;48.506;8.966;2023-03-19T08:27:02;11.00;99.90
23089;DHT22;11713;48.506;8.966;2023-03-19T08:29:28;11.10;99.90
23089;DHT22;11713;48.506;8.966;2023-03-19T08:31:54;11.20;99.90
23089;DHT22;11713;48.506;8.966;2023-03-19T08:34:21;11.30;99.90
23089;DHT22;11713;48.506;8.966;2023-03-19T08:36:47;11.40;99.90
23089;DHT22;11713;48.506;8.966;2023-03-19T08:39:14;11.50;99.90
23089;DHT22;11713;48.506;8.966;2023-03-19T08:41:40;11.50;99.90
23089;DHT22;11713;48.506;8.966;2023-03-19T08:44:05;11.50;99.90
23089;DHT22;11713;48.506;8.966;2023-03-19T08:46:31;11.50;99.90
23089;DHT22;11713;48.506;8.966;2023-03-19T08:48:58;11.60;99.90
23089;DHT22;11713;48.506;8.966;2023-03-19T08:51:25;11.60;99.90
23089;DHT22;11713;48.506;8.966;2023-03-19T08:53:55;11.70;99.90
23089;DHT22;11713;48.506;8.966;2023-03-19T08:56:22;12.00;99.90
23089;DHT22;11713;48.506;8.966;2023-03-19T08:58:48;12.20;99.90
23089;DHT22;11713;48.506;8.966;2023-03-19T09:01:14;12.30;99.90
23089;DHT22;11713;48.506;8.966;2023-03-19T09:03:41;12.60;99.90
23089;DHT22;11713;48.506;8.966;2023-03-19T09:06:09;12.80;99.90
23089;DHT22;11713;48.506;8.966;2023-03-19T09:08:36;12.90;99.90
23089;DHT22;11713;48.506;8.966;2023-03-19T09:11:04;13.00;99.90
23089;DHT22;11713;48.506;8.966;2023-03-19T09:13:30;13.20;99.90
23089;DHT22;11713;48.506;8.966;2023-03-19T09:15:56;13.40;99.90
23089;DHT22;11713;48.506;8.966;2023-03-19T09:18:22;13.40;99.90
23089;DHT22;11713;48.506;8.966;2023-03-19T09:20:52;13.50;99.90
23089;DHT22;11713;48.506;8.966;2023-03-19T09:23:18;13.70;99.90
23089;DHT22;11713;48.506;8.966;2023-03-19T09:25:44;13.80;99.90
23089;DHT22;11713;48.506;8.966;2023-03-19T09:28:12;13.90;99.90
23089;DHT22;11713;48.506;8.966;2023-03-19T09:30:38;13.80;99.90
23089;DHT22;11713;48.506;8.966;2023-03-19T09:33:05;13.90;99.90
23089;DHT22;11713;48.506;8.966;2023-03-19T09:35:31;14.10;99.90
23089;DHT22;11713;48.506;8.966;2023-03-19T09:37:58;14.30;99.90
23089;DHT22;11713;48.506;8.966;2023-03-19T09:40:28;14.40;99.90
23089;DHT22;11713;48.506;8.966;2023-03-19T09:43:19;14.50;99.90
23089;DHT22;11713;48.506;8.966;2023-03-19T09:45:49;14.60;99.90
23089;DHT22;11713;48.506;8.966;2023-03-19T09:48:21;14.60;99.90
23089;DHT22;11713;48.506;8.966;2023-03-19T09:50:54;14.70;99.90
23089;DHT22;11713;48.506;8.966;2023-03-19T09:53:46;14.80;99.90
23089;DHT22;11713;48.506;8.966;2023-03-19T09:56:16;14.80;99.90
23089;DHT22;11713;48.506;8.966;2023-03-19T09:58:44;14.80;99.90
23089;DHT22;11713;48.506;8.966;2023-03-19T10:01:25;14.90;99.90
23089;DHT22;11713;48.506;8.966;2023-03-19T10:06:35;14.90;99.90
23089;DHT22;11713;48.506;8.966;2023-03-19T10:17:34;15.20;99.90
23089;DHT22;11713;48.506;8.966;2023-03-19T10:22:46;15.40;99.90
23089;DHT22;11713;48.506;8.966;2023-03-19T10:25:21;15.40;99.90
23089;DHT22;11713;48.506;8.966;2023-03-19T10:28:06;15.30;99.90
23089;DHT22;11713;48.506;8.966;2023-03-19T10:30:36;15.30;99.90
23089;DHT22;11713;48.506;8.966;2023-03-19T10:33:22;15.30;99.90
23089;DHT22;11713;48.506;8.966;2023-03-19T10:36:01;15.30;99.90
23089;DHT22;11713;48.506;8.966;2023-03-19T10:38:31;15.30;99.90
23089;DHT22;11713;48.506;8.966;2023-03-19T10:43:44;15.40;99.90
23089;DHT22;11713;48.506;8.966;2023-03-19T10:46:12;15.50;99.90
23089;DHT22;11713;48.506;8.966;2023-03-19T10:48:45;15.50;99.90
23089;DHT22;11713;48.506;8.966;2023-03-19T10:51:23;15.60;99.90
23089;DHT22;11713;48.506;8.966;2023-03-19T10:53:52;15.70;99.90
23089;DHT22;11713;48.506;8.966;2023-03-19T10:59:05;15.80;99.90
23089;DHT22;11713;48.506;8.966;2023-03-19T11:01:37;15.90;99.90
23089;DHT22;11713;48.506;8.966;2023-03-19T11:04:20;15.80;99.90
23089;DHT22;11713;48.506;8.966;2023-03-19T11:06:50;15.70;99.90
23089;DHT22;11713;48.506;8.966;2023-03-19T11:09:32;15.70;99.90
23089;DHT22;11713;48.506;8.966;2023-03-19T11:14:52;15.90;99.90
23089;DHT22;11713;48.506;8.966;2023-03-19T11:17:38;15.90;99.90
23089;DHT22;11713;48.506;8.966;2023-03-19T11:22:40;15.90;99.90
23089;DHT22;11713;48.506;8.966;2023-03-19T11:28:02;16.00;99.90
23089;DHT22;11713;48.506;8.966;2023-03-19T11:30:35;16.10;99.90
23089;DHT22;11713;48.506;8.966;2023-03-19T11:36:00;16.10;99.90
23089;DHT22;11713;48.506;8.966;2023-03-19T11:38:41;16.20;99.90
23089;DHT22;11713;48.506;8.966;2023-03-19T11:44:29;16.40;99.90
23089;DHT22;11713;48.506;8.966;2023-03-19T11:49:53;16.70;99.90
23089;DHT22;11713;48.506;8.966;2023-03-19T11:52:34;16.70;99.90
23089;DHT22;11713;48.506;8.966;2023-03-19T12:06:11;16.40;99.90
23089;DHT22;11713;48.506;8.966;2023-03-19T12:09:02;16.40;99.90
23089;DHT22;11713;48.506;8.966;2023-03-19T12:30:13;16.30;99.90
23089;DHT22;11713;48.506;8.966;2023-03-19T12:35:42;16.20;99.90
23089;DHT22;11713;48.506;8.966;2023-03-19T12:38:30;16.20;99.90
23089;DHT22;11713;48.506;8.966;2023-03-19T12:40:59;16.20;99.90
23089;DHT22;11713;48.506;8.966;2023-03-19T12:43:35;16.30;99.90
23089;DHT22;11713;48.506;8.966;2023-03-19T12:46:12;16.40;99.90
23089;DHT22;11713;48.506;8.966;2023-03-19T12:49:04;16.50;99.90
23089;DHT22;11713;48.506;8.966;2023-03-19T12:51:38;16.50;99.90
23089;DHT22;11713;48.506;8.966;2023-03-19T12:54:19;16.50;99.90
23089;DHT22;11713;48.506;8.966;2023-03-19T12:59:43;16.30;99.90
23089;DHT22;11713;48.506;8.966;2023-03-19T13:03:00;16.20;99.90
23089;DHT22;11713;48.506;8.966;2023-03-19T13:10:24;16.40;99.90
23089;DHT22;11713;48.506;8.966;2023-03-19T13:12:51;16.50;99.90
23089;DHT22;11713;48.506;8.966;2023-03-19T13:21:47;16.60;99.90
23089;DHT22;11713;48.506;8.966;2023-03-19T13:24:11;16.50;99.90
23089;DHT22;11713;48.506;8.966;2023-03-19T13:26:40;16.40;99.90
23089;DHT22;11713;48.506;8.966;2023-03-19T13:29:19;16.40;99.90
23089;DHT22;11713;48.506;8.966;2023-03-19T13:31:47;16.40;99.90
23089;DHT22;11713;48.506;8.966;2023-03-19T13:36:43;16.30;99.90
23089;DHT22;11713;48.506;8.966;2023-03-19T13:39:23;16.30;99.90
23089;DHT22;11713;48.506;8.966;2023-03-19T13:41:57;16.30;99.90
23089;DHT22;11713;48.506;8.966;2023-03-19T13:47:00;16.00;99.90
23089;DHT22;11713;48.506;8.966;2023-03-19T13:49:34;16.00;99.90
23089;DHT22;11713;48.506;8.966;2023-03-19T13:54:40;16.00;99.90
23089;DHT22;11713;48.506;8.966;2023-03-19T13:59:40;16.00;99.90
23089;DHT22;11713;48.506;8.966;2023-03-19T14:07:18;16.00;99.90
23089;DHT22;11713;48.506;8.966;2023-03-19T14:09:48;16.00;99.90
23089;DHT22;11713;48.506;8.966;2023-03-19T14:14:54;15.90;99.90
23089;DHT22;11713;48.506;8.966;2023-03-19T14:17:31;15.90;99.90
23089;DHT22;11713;48.506;8.966;2023-03-19T14:25:25;15.80;99.90
23089;DHT22;11713;48.506;8.966;2023-03-19T14:28:10;15.80;99.90
23089;DHT22;11713;48.506;8.966;2023-03-19T14:30:44;15.90;99.90
23089;DHT22;11713;48.506;8.966;2023-03-19T14:33:22;15.80;99.90
23089;DHT22;11713;48.506;8.966;2023-03-19T14:35:49;15.70;99.90
23089;DHT22;11713;48.506;8.966;2023-03-19T14:38:37;15.60;99.90
23089;DHT22;11713;48.506;8.966;2023-03-19T14:41:05;15.50;99.90
23089;DHT22;11713;48.506;8.966;2023-03-19T14:47:25;15.40;99.90
23089;DHT22;11713;48.506;8.966;2023-03-19T14:50:23;15.50;99.90
23089;DHT22;11713;48.506;8.966;2023-03-19T14:55:19;15.50;99.90
23089;DHT22;11713;48.506;8.966;2023-03-19T14:57:45;15.40;99.90
23089;DHT22;11713;48.506;8.966;2023-03-19T15:00:17;15.40;99.90
23089;DHT22;11713;48.506;8.966;2023-03-19T15:02:50;15.30;99.90
23089;DHT22;11713;48.506;8.966;2023-03-19T15:05:29;15.20;99.90
23089;DHT22;11713;48.506;8.966;2023-03-19T15:08:03;15.20;99.90
23089;DHT22;11713;48.506;8.966;2023-03-19T15:10:45;15.10;99.90
23089;DHT22;11713;48.506;8.966;2023-03-19T15:18:48;15.10;99.90
23089;DHT22;11713;48.506;8.966;2023-03-19T15:21:14;15.20;99.90
23089;DHT22;11713;48.506;8.966;2023-03-19T15:23:44;15.20;99.90
23089;DHT22;11713;48.506;8.966;2023-03-19T15:26:11;15.20;99.90
23089;DHT22;11713;48.506;8.966;2023-03-19T15:28:48;15.20;99.90
23089;DHT22;11713;48.506;8.966;2023-03-19T15:31:16;15.20;99.90
23089;DHT22;11713;48.506;8.966;2023-03-19T15:33:43;15.30;99.90
23089;DHT22;11713;48.506;8.966;2023-03-19T15:36:24;15.40;99.90
23089;DHT22;11713;48.506;8.966;2023-03-19T15:39:06;15.50;99.90
23089;DHT22;11713;48.506;8.966;2023-03-19T15:41:38;15.50;99.90
23089;DHT22;11713;48.506;8.966;2023-03-19T15:44:10;15.60;99.90
23089;DHT22;11713;48.506;8.966;2023-03-19T15:46:40;15.70;99.90
23089;DHT22;11713;48.506;8.966;2023-03-19T15:51:45;16.00;99.90
23089;DHT22;11713;48.506;8.966;2023-03-19T15:54:16;16.00;99.90
23089;DHT22;11713;48.506;8.966;2023-03-19T15:56:42;15.90;99.90
23089;DHT22;11713;48.506;8.966;2023-03-19T15:59:09;15.70;99.90
23089;DHT22;11713;48.506;8.966;2023-03-19T16:01:35;15.50;99.90
23089;DHT22;11713;48.506;8.966;2023-03-19T16:04:05;15.50;99.90
23089;DHT22;11713;48.506;8.966;2023-03-19T16:06:36;15.40;99.90
23089;DHT22;11713;48.506;8.966;2023-03-19T16:11:54;15.10;99.90
23089;DHT22;11713;48.506;8.966;2023-03-19T16:14:23;15.00;99.90
23089;DHT22;11713;48.506;8.966;2023-03-19T16:16:57;14.90;99.90
23089;DHT22;11713;48.506;8.966;2023-03-19T16:19:36;14.90;99.90
23089;DHT22;11713;48.506;8.966;2023-03-19T16:22:11;14.80;99.90
23089;DHT22;11713;48.506;8.966;2023-03-19T16:24:39;14.70;99.90
23089;DHT22;11713;48.506;8.966;2023-03-19T16:27:16;14.70;99.90
23089;DHT22;11713;48.506;8.966;2023-03-19T16:29:47;14.60;99.90
23089;DHT22;11713;48.506;8.966;2023-03-19T16:32:24;14.60;99.90
23089;DHT22;11713;48.506;8.966;2023-03-19T16:35:05;14.60;99.90
23089;DHT22;11713;48.506;8.966;2023-03-19T16:42:42;14.50;99.90
23089;DHT22;11713;48.506;8.966;2023-03-19T16:47:49;14.30;99.90
23089;DHT22;11713;48.506;8.966;2023-03-19T16:50:16;14.30;99.90
23089;DHT22;11713;48.506;8.966;2023-03-19T16:52:44;14.20;99.90
23089;DHT22;11713;48.506;8.966;2023-03-19T16:55:27;14.20;99.90
23089;DHT22;11713;48.506;8.966;2023-03-19T16:58:00;14.20;99.90
23089;DHT22;11713;48.506;8.966;2023-03-19T17:00:27;14.10;99.90
23089;DHT22;11713;48.506;8.966;2023-03-19T17:02:54;14.10;99.90
23089;DHT22;11713;48.506;8.966;2023-03-19T17:05:24;14.00;99.90
23089;DHT22;11713;48.506;8.966;2023-03-19T17:07:51;14.00;99.90
23089;DHT22;11713;48.506;8.966;2023-03-19T17:10:19;14.00;99.90
23089;DHT22;11713;48.506;8.966;2023-03-19T17:12:47;13.90;99.90
23089;DHT22;11713;48.506;8.966;2023-03-19T17:15:37;13.90;99.90
23089;DHT22;11713;48.506;8.966;2023-03-19T17:18:20;13.90;99.90
23089;DHT22;11713;48.506;8.966;2023-03-19T17:20:55;13.90;99.90
23089;DHT22;11713;48.506;8.966;2023-03-19T17:23:21;13.90;99.90
23089;DHT22;11713;48.506;8.966;2023-03-19T17:25:52;13.70;99.90
23089;DHT22;11713;48.506;8.966;2023-03-19T17:28:18;13.70;99.90
23089;DHT22;11713;48.506;8.966;2023-03-19T17:30:45;13.70;99.90
23089;DHT22;11713;48.506;8.966;2023-03-19T17:33:26;13.60;99.90
23089;DHT22;11713;48.506;8.966;2023-03-19T17:35:53;13.60;99.90
23089;DHT22;11713;48.506;8.966;2023-03-19T17:38:20;13.60;99.90
23089;DHT22;11713;48.506;8.966;2023-03-19T17:40:47;13.50;99.90
23089;DHT22;11713;48.506;8.966;2023-03-19T17:43:13;13.50;99.90
23089;DHT22;11713;48.506;8.966;2023-03-19T17:45:41;13.50;99.90
23089;DHT22;11713;48.506;8.966;2023-03-19T17:48:17;13.40;99.90
23089;DHT22;11713;48.506;8.966;2023-03-19T17:51:09;13.40;99.90
23089;DHT22;11713;48.506;8.966;2023-03-19T17:53:37;13.40;99.90
23089;DHT22;11713;48.506;8.966;2023-03-19T17:56:04;13.40;99.90
23089;DHT22;11713;48.506;8.966;2023-03-19T17:58:30;13.40;99.90
23089;DHT22;11713;48.506;8.966;2023-03-19T18:00:57;13.40;99.90
23089;DHT22;11713;48.506;8.966;2023-03-19T18:03:24;13.40;99.90
23089;DHT22;11713;48.506;8.966;2023-03-19T18:05:51;13.30;99.90
23089;DHT22;11713;48.506;8.966;2023-03-19T18:08:19;13.20;99.90
23089;DHT22;11713;48.506;8.966;2023-03-19T18:10:45;13.10;99.90
23089;DHT22;11713;48.506;8.966;2023-03-19T18:13:11;12.90;99.90